createdAt,value
2019-06-20T00:01:42.980Z,19.10
2019-06-20T00:04:35.878Z,19.10
2019-06-20T00:07:24.420Z,19.10
2019-06-20T00:10:12.933Z,19.20
2019-06-20T00:12:42.420Z,19.30
2019-06-20T00:15:30.915Z,19.20
2019-06-20T00:18:19.500Z,19.30
2019-06-20T00:20:49.012Z,19.30
2019-06-20T00:23:37.553Z,19.30
2019-06-20T00:26:26.043Z,19.30
2019-06-20T00:29:14.585Z,19.40
2019-06-20T00:31:44.096Z,19.40
2019-06-20T00:34:13.605Z,19.50
2019-06-20T00:37:02.109Z,19.40
2019-06-20T00:39:31.627Z,19.30
2019-06-20T00:42:20.438Z,18.50
2019-06-20T00:44:49.956Z,18.10
2019-06-20T00:47:38.601Z,17.80
2019-06-20T00:53:22.431Z,17.60
2019-06-20T00:56:10.952Z,17.60
2019-06-20T00:58:40.460Z,17.50
2019-06-20T01:01:29.012Z,17.40
2019-06-20T01:03:58.502Z,17.30
2019-06-20T01:06:47.098Z,17.40
2019-06-20T01:09:35.573Z,17.30
2019-06-20T01:12:24.110Z,17.40
2019-06-20T01:15:12.760Z,17.20
2019-06-20T01:18:01.410Z,17.10
2019-06-20T01:20:49.945Z,17.00
2019-06-20T01:23:38.465Z,16.90
2019-06-20T01:26:27.013Z,16.80
2019-06-20T01:29:15.553Z,16.70
2019-06-20T01:31:45.029Z,16.70
2019-06-20T01:34:33.594Z,16.60
2019-06-20T01:37:22.087Z,16.70
2019-06-20T01:40:10.726Z,16.70
2019-06-20T01:42:59.237Z,16.70
2019-06-20T01:45:28.748Z,16.70
2019-06-20T01:48:17.256Z,16.70
2019-06-20T01:51:05.789Z,16.60
2019-06-20T01:53:54.289Z,16.70
2019-06-20T01:56:23.790Z,16.70
2019-06-20T01:59:12.292Z,16.80
2019-06-20T02:01:53.270Z,16.70
2019-06-20T02:04:22.756Z,16.70
2019-06-20T02:07:11.302Z,16.70
2019-06-20T02:09:59.852Z,16.70
2019-06-20T02:15:18.013Z,16.70
2019-06-20T02:18:06.557Z,16.70
2019-06-20T02:21:15.419Z,16.70
2019-06-20T02:24:04.062Z,16.60
2019-06-20T02:26:52.569Z,16.60
2019-06-20T02:29:22.075Z,16.70
2019-06-20T02:37:46.262Z,16.90
2019-06-20T02:40:15.753Z,16.80
2019-06-20T02:43:04.712Z,16.90
2019-06-20T02:45:53.230Z,16.90
2019-06-20T02:48:22.717Z,16.80
2019-06-20T02:51:11.243Z,16.90
2019-06-20T02:53:40.758Z,16.90
2019-06-20T02:56:10.286Z,16.80
2019-06-20T02:58:59.114Z,16.80
2019-06-20T03:01:30.149Z,16.70
2019-06-20T03:04:18.699Z,16.80
2019-06-20T03:07:07.205Z,16.80
2019-06-20T03:09:55.830Z,16.70
2019-06-20T03:12:25.343Z,16.60
2019-06-20T03:15:14.004Z,16.60
2019-06-20T03:18:02.610Z,16.60
2019-06-20T03:20:51.164Z,16.70
2019-06-20T03:23:20.680Z,16.70
2019-06-20T03:25:50.168Z,16.70
2019-06-20T03:28:19.841Z,16.70
2019-06-20T03:31:08.400Z,16.60
2019-06-20T03:33:56.948Z,16.60
2019-06-20T03:36:26.428Z,16.60
2019-06-20T03:39:15.005Z,16.50
2019-06-20T03:42:03.510Z,16.60
2019-06-20T03:45:01.760Z,16.60
2019-06-20T03:47:23.178Z,16.60
2019-06-20T03:50:11.734Z,16.60
2019-06-20T03:52:41.223Z,16.60
2019-06-20T03:55:11.911Z,16.60
2019-06-20T03:58:00.974Z,16.60
2019-06-20T04:00:49.587Z,16.60
2019-06-20T04:03:19.199Z,16.60
2019-06-20T04:06:07.746Z,16.60
2019-06-20T04:08:56.310Z,16.70
2019-06-20T04:11:25.890Z,16.70
2019-06-20T04:14:14.457Z,16.70
2019-06-20T04:16:43.974Z,16.80
2019-06-20T04:19:13.486Z,16.70
2019-06-20T04:22:01.994Z,16.80
2019-06-20T04:24:50.559Z,16.80
2019-06-20T04:27:20.174Z,16.80
2019-06-20T04:30:14.462Z,16.80
2019-06-20T04:33:02.988Z,16.80
2019-06-20T04:38:26.881Z,16.80
2019-06-20T04:41:15.437Z,16.90
2019-06-20T04:44:04.303Z,16.90
2019-06-20T04:49:52.133Z,17.00
2019-06-20T04:52:21.633Z,17.00
2019-06-20T04:54:51.114Z,17.10
2019-06-20T04:57:20.575Z,17.00
2019-06-20T05:00:09.597Z,17.10
2019-06-20T05:02:58.207Z,17.20
2019-06-20T05:05:27.846Z,17.30
2019-06-20T05:07:57.320Z,17.40
2019-06-20T05:10:26.878Z,17.40
2019-06-20T05:13:15.452Z,17.40
2019-06-20T05:15:52.704Z,17.60
2019-06-20T05:18:16.370Z,17.70
2019-06-20T05:21:04.934Z,17.80
2019-06-20T05:23:34.410Z,17.90
2019-06-20T05:26:22.966Z,17.90
2019-06-20T05:29:11.493Z,18.00
2019-06-20T05:32:00.046Z,18.20
2019-06-20T05:34:48.600Z,18.30
2019-06-20T05:37:18.070Z,18.50
2019-06-20T05:40:06.768Z,18.50
2019-06-20T05:42:55.362Z,18.50
2019-06-20T05:45:24.983Z,18.40
2019-06-20T05:48:13.594Z,18.40
2019-06-20T05:51:02.158Z,18.30
2019-06-20T05:53:31.650Z,18.40
2019-06-20T05:56:20.209Z,18.60
2019-06-20T05:59:08.729Z,18.70
2019-06-20T06:01:57.370Z,18.70
2019-06-20T06:04:38.354Z,18.70
2019-06-20T06:07:07.927Z,18.70
2019-06-20T06:09:56.548Z,18.90
2019-06-20T06:12:26.022Z,19.00
2019-06-20T06:15:14.582Z,19.30
2019-06-20T06:17:56.301Z,19.20
2019-06-20T06:20:25.897Z,19.20
2019-06-20T06:23:14.435Z,19.00
2019-06-20T06:26:02.993Z,18.80
2019-06-20T06:28:51.533Z,18.70
2019-06-20T06:31:21.059Z,18.70
2019-06-20T06:34:09.612Z,18.60
2019-06-20T06:36:58.125Z,18.30
2019-06-20T06:39:27.592Z,18.20
2019-06-20T06:42:16.173Z,17.90
2019-06-20T06:45:05.578Z,17.80
2019-06-20T06:47:54.216Z,17.60
2019-06-20T06:50:24.211Z,17.60
2019-06-20T06:53:12.752Z,17.40
2019-06-20T06:56:01.403Z,17.40
2019-06-20T06:58:49.980Z,17.40
2019-06-20T07:01:38.531Z,17.30
2019-06-20T07:04:27.182Z,17.20
2019-06-20T07:06:57.116Z,17.20
2019-06-20T07:09:26.620Z,17.20
2019-06-20T07:12:08.224Z,17.30
2019-06-20T07:14:49.731Z,17.40
2019-06-20T07:17:19.278Z,17.40
2019-06-20T07:20:08.511Z,17.40
2019-06-20T07:22:57.058Z,17.40
2019-06-20T07:25:26.541Z,17.40
2019-06-20T07:28:15.094Z,17.60
2019-06-20T07:31:02.873Z,17.60
2019-06-20T07:33:51.452Z,17.60
2019-06-20T07:36:20.930Z,17.80
2019-06-20T07:38:50.517Z,18.00
2019-06-20T07:41:19.963Z,18.00
2019-06-20T07:43:49.480Z,18.20
2019-06-20T07:46:19.834Z,18.30
2019-06-20T07:48:49.298Z,18.40
2019-06-20T07:51:18.858Z,18.80
2019-06-20T07:54:07.358Z,19.20
2019-06-20T07:56:55.928Z,19.40
2019-06-20T07:59:25.488Z,19.20
2019-06-20T08:02:14.047Z,19.30
2019-06-20T08:05:02.563Z,19.30
2019-06-20T08:07:43.784Z,19.20
2019-06-20T08:10:13.904Z,19.50
2019-06-20T08:13:02.546Z,19.50
2019-06-20T08:15:51.051Z,19.20
2019-06-20T08:18:20.590Z,19.20
2019-06-20T08:21:09.129Z,19.10
2019-06-20T08:23:38.644Z,19.20
2019-06-20T08:26:27.136Z,19.40
2019-06-20T08:29:21.098Z,19.40
2019-06-20T08:32:06.612Z,19.50
2019-06-20T08:38:03.750Z,19.70
2019-06-20T08:40:53.029Z,19.90
2019-06-20T08:43:41.601Z,20.20
2019-06-20T08:46:30.140Z,20.10
2019-06-20T08:49:18.678Z,20.30
2019-06-20T08:52:07.276Z,20.40
2019-06-20T08:54:36.922Z,20.60
2019-06-20T08:57:06.473Z,20.70
2019-06-20T08:59:35.992Z,20.90
2019-06-20T09:04:35.181Z,21.00
2019-06-20T09:09:34.270Z,21.20
2019-06-20T09:12:04.969Z,21.00
2019-06-20T09:14:34.658Z,20.90
2019-06-20T09:17:04.301Z,21.00
2019-06-20T09:19:33.921Z,21.00
2019-06-20T09:22:05.031Z,21.20
2019-06-20T09:24:41.242Z,21.30
2019-06-20T09:27:17.537Z,21.30
2019-06-20T09:29:47.115Z,21.50
2019-06-20T09:32:16.618Z,21.60
2019-06-20T09:34:46.184Z,21.50
2019-06-20T09:37:15.688Z,21.50
2019-06-20T09:39:52.085Z,21.90
2019-06-20T09:42:27.107Z,22.20
2019-06-20T09:44:56.594Z,22.20
2019-06-20T09:47:26.300Z,22.10
2019-06-20T09:49:59.254Z,22.10
2019-06-20T09:52:28.764Z,22.40
2019-06-20T09:54:58.344Z,22.50
2019-06-20T09:57:38.542Z,22.60
2019-06-20T10:00:21.056Z,22.70
2019-06-20T10:02:52.451Z,22.80
2019-06-20T10:05:23.034Z,23.00
2019-06-20T10:07:56.923Z,23.00
2019-06-20T10:10:38.728Z,23.10
2019-06-20T10:13:11.100Z,23.30
2019-06-20T10:15:46.682Z,23.00
2019-06-20T10:18:16.594Z,22.70
2019-06-20T10:20:51.190Z,22.90
2019-06-20T10:23:21.874Z,23.30
2019-06-20T10:25:54.055Z,23.70
2019-06-20T10:28:27.354Z,23.70
2019-06-20T10:31:00.321Z,24.00
2019-06-20T10:33:31.929Z,24.00
2019-06-20T10:36:03.637Z,23.70
2019-06-20T10:38:53.906Z,23.80
2019-06-20T10:41:44.688Z,24.10
2019-06-20T10:44:14.818Z,24.30
2019-06-20T10:46:46.138Z,24.00
2019-06-20T10:49:17.692Z,23.90
2019-06-20T10:51:52.317Z,23.70
2019-06-20T10:54:25.092Z,23.90
2019-06-20T10:57:01.135Z,24.30
2019-06-20T11:02:29.812Z,24.50
2019-06-20T11:05:12.502Z,24.70
2019-06-20T11:07:40.758Z,24.80
2019-06-20T11:13:03.800Z,25.40
2019-06-20T11:15:39.280Z,25.80
2019-06-20T11:18:09.082Z,25.90
2019-06-20T11:20:59.517Z,25.40
2019-06-20T11:23:38.187Z,24.80
2019-06-20T11:26:11.029Z,24.70
2019-06-20T11:31:51.643Z,24.30
2019-06-20T11:34:44.949Z,24.30
2019-06-20T11:37:18.710Z,24.20
2019-06-20T11:39:51.288Z,23.90
2019-06-20T11:42:27.336Z,24.10
2019-06-20T11:45:02.900Z,24.40
2019-06-20T11:47:38.200Z,24.70
2019-06-20T11:52:58.089Z,24.90
2019-06-20T11:55:28.747Z,25.10
2019-06-20T11:58:00.918Z,25.10
2019-06-20T12:00:31.853Z,25.30
2019-06-20T12:03:05.988Z,25.20
2019-06-20T12:05:36.536Z,25.10
2019-06-20T12:08:06.003Z,25.50
2019-06-20T12:10:38.035Z,25.80
2019-06-20T12:13:11.122Z,25.90
2019-06-20T12:15:42.836Z,25.80
2019-06-20T12:18:15.552Z,26.00
2019-06-20T12:20:49.979Z,25.90
2019-06-20T12:23:22.221Z,25.40
2019-06-20T12:25:52.902Z,25.10
2019-06-20T12:28:23.179Z,25.10
2019-06-20T12:30:53.036Z,25.00
2019-06-20T12:33:23.497Z,25.00
2019-06-20T12:35:53.653Z,25.50
2019-06-20T12:38:24.238Z,26.10
2019-06-20T12:40:55.042Z,26.40
2019-06-20T12:43:25.549Z,25.70
2019-06-20T12:46:00.253Z,25.70
2019-06-20T12:48:33.037Z,25.60
2019-06-20T12:51:04.562Z,25.30
2019-06-20T12:53:38.672Z,25.20
2019-06-20T12:56:29.831Z,25.70
2019-06-20T12:59:00.667Z,25.60
2019-06-20T13:01:36.908Z,26.00
2019-06-20T13:04:06.011Z,26.30
2019-06-20T13:06:37.659Z,26.60
2019-06-20T13:09:07.798Z,26.80
2019-06-20T13:11:39.126Z,27.90
2019-06-20T13:14:30.322Z,28.70
2019-06-20T13:17:04.344Z,29.60
2019-06-20T13:19:34.440Z,29.70
2019-06-20T13:22:06.708Z,30.10
2019-06-20T13:24:37.940Z,30.00
2019-06-20T13:27:10.235Z,30.00
2019-06-20T13:29:43.519Z,30.40
2019-06-20T13:32:13.350Z,31.20
2019-06-20T13:34:46.944Z,31.80
2019-06-20T13:37:21.029Z,31.10
2019-06-20T13:39:54.262Z,30.50
2019-06-20T13:42:24.016Z,30.30
2019-06-20T13:45:02.171Z,29.80
2019-06-20T13:47:31.721Z,28.60
2019-06-20T13:50:03.087Z,27.70
2019-06-20T13:52:38.390Z,26.30
2019-06-20T13:55:08.990Z,25.60
2019-06-20T13:57:41.193Z,25.30
2019-06-20T14:03:01.877Z,24.80
2019-06-20T14:05:32.704Z,24.50
2019-06-20T14:08:02.738Z,24.10
2019-06-20T14:10:35.827Z,23.80
2019-06-20T14:13:18.587Z,23.70
2019-06-20T14:15:39.059Z,23.50
2019-06-20T14:18:08.524Z,22.90
2019-06-20T14:20:38.031Z,21.60
2019-06-20T14:23:07.511Z,20.80
2019-06-20T14:25:36.969Z,20.50
2019-06-20T14:28:06.480Z,20.30
2019-06-20T14:30:35.940Z,20.00
2019-06-20T14:33:05.439Z,19.10
2019-06-20T14:35:34.938Z,18.50
2019-06-20T14:38:04.438Z,18.00
2019-06-20T14:40:33.959Z,17.70
2019-06-20T14:43:03.538Z,17.40
2019-06-20T14:45:33.020Z,17.00
2019-06-20T14:48:04.020Z,16.70
2019-06-20T14:50:33.602Z,16.50
2019-06-20T14:53:03.080Z,16.30
2019-06-20T14:55:51.740Z,16.20
2019-06-20T14:58:40.387Z,16.00
2019-06-20T15:01:28.885Z,16.00
2019-06-20T15:03:58.411Z,15.80
2019-06-20T15:06:48.411Z,15.70
2019-06-20T15:09:29.331Z,15.70
2019-06-20T15:11:58.845Z,15.70
2019-06-20T15:14:48.322Z,15.80
2019-06-20T15:17:37.402Z,15.80
2019-06-20T15:20:25.902Z,15.80
2019-06-20T15:22:56.623Z,15.80
2019-06-20T15:25:45.833Z,15.80
2019-06-20T15:28:35.460Z,15.90
2019-06-20T15:31:04.983Z,16.00
2019-06-20T15:33:54.799Z,16.00
2019-06-20T15:36:43.591Z,16.20
2019-06-20T15:39:32.169Z,16.20
2019-06-20T15:42:01.766Z,16.20
2019-06-20T15:44:51.942Z,16.20
2019-06-20T15:47:40.447Z,16.30
2019-06-20T15:50:28.973Z,16.40
2019-06-20T15:52:58.457Z,16.50
2019-06-20T15:55:46.988Z,16.70
2019-06-20T15:58:35.500Z,16.90
2019-06-20T16:01:04.993Z,17.00
2019-06-20T16:03:53.532Z,17.10
2019-06-20T16:06:42.064Z,17.20
2019-06-20T16:09:30.576Z,17.40
2019-06-20T16:12:00.147Z,17.40
2019-06-20T16:14:48.645Z,17.50
2019-06-20T16:17:37.356Z,17.50
2019-06-20T16:20:25.884Z,17.40
2019-06-20T16:22:55.365Z,17.30
2019-06-20T16:25:43.903Z,17.30
2019-06-20T16:28:32.421Z,17.30
2019-06-20T16:31:10.195Z,17.20
2019-06-20T16:33:52.127Z,17.10
2019-06-20T16:36:40.677Z,17.30
2019-06-20T16:39:29.211Z,17.10
2019-06-20T16:41:58.735Z,17.20
2019-06-20T16:44:47.256Z,17.20
2019-06-20T16:47:35.883Z,17.10
2019-06-20T16:50:44.780Z,17.00
2019-06-20T16:53:33.338Z,17.00
2019-06-20T16:56:02.895Z,17.00
2019-06-20T16:58:51.537Z,16.90
2019-06-20T17:01:20.973Z,16.90
2019-06-20T17:03:50.450Z,16.90
2019-06-20T17:06:39.020Z,17.00
2019-06-20T17:09:27.563Z,17.10
2019-06-20T17:11:57.048Z,17.30
2019-06-20T17:14:45.588Z,17.40
2019-06-20T17:17:34.077Z,17.60
2019-06-20T17:20:03.645Z,17.80
2019-06-20T17:22:52.152Z,17.90
2019-06-20T17:25:40.704Z,17.90
2019-06-20T17:28:29.215Z,18.00
2019-06-20T17:30:58.756Z,18.00
2019-06-20T17:33:57.178Z,18.00
2019-06-20T17:36:18.896Z,18.00
2019-06-20T17:38:49.605Z,17.80
2019-06-20T17:41:38.466Z,17.80
2019-06-20T17:44:28.336Z,17.80
2019-06-20T17:46:57.968Z,17.70
2019-06-20T17:49:46.655Z,17.90
2019-06-20T17:52:35.330Z,18.10
2019-06-20T17:57:59.878Z,18.50
2019-06-20T18:00:29.864Z,18.60
2019-06-20T18:02:59.515Z,18.70
2019-06-20T18:05:48.223Z,18.90
2019-06-20T18:08:36.844Z,19.00
2019-06-20T18:11:25.366Z,19.00
2019-06-20T18:13:54.896Z,18.90
2019-06-20T18:16:43.406Z,18.90
2019-06-20T18:19:12.917Z,18.80
2019-06-20T18:22:01.431Z,18.80
2019-06-20T18:24:49.960Z,18.70
2019-06-20T18:27:38.473Z,18.70
2019-06-20T18:30:52.694Z,18.70
2019-06-20T18:33:41.196Z,18.60
2019-06-20T18:36:29.736Z,18.50
2019-06-20T18:38:59.220Z,18.40
2019-06-20T18:41:47.766Z,18.40
2019-06-20T18:44:36.272Z,18.50
2019-06-20T18:47:24.805Z,18.50
2019-06-20T18:49:54.290Z,18.40
2019-06-20T18:53:01.857Z,18.40
2019-06-20T18:55:50.363Z,18.30
2019-06-20T18:58:38.928Z,18.30
2019-06-20T19:01:27.432Z,18.30
2019-06-20T19:03:56.949Z,18.10
2019-06-20T19:06:45.468Z,18.00
2019-06-20T19:09:34.018Z,17.90
2019-06-20T19:12:03.485Z,17.80
2019-06-20T19:14:44.291Z,17.70
2019-06-20T19:17:25.800Z,17.70
2019-06-20T19:19:55.350Z,17.60
2019-06-20T19:22:24.861Z,17.50
2019-06-20T19:24:54.339Z,17.40
2019-06-20T19:27:46.709Z,17.40
2019-06-20T19:30:52.120Z,17.30
2019-06-20T19:36:28.587Z,17.30
2019-06-20T19:38:58.045Z,17.30
2019-06-20T19:41:46.622Z,17.20
2019-06-20T19:47:28.843Z,17.10
2019-06-20T19:49:58.362Z,16.90
2019-06-20T19:52:27.882Z,16.80
2019-06-20T19:54:57.381Z,16.80
2019-06-20T19:57:45.913Z,16.70
2019-06-20T20:00:34.423Z,16.70
2019-06-20T20:03:04.056Z,16.70
2019-06-20T20:05:52.591Z,16.60
2019-06-20T20:13:57.932Z,16.50
2019-06-20T20:16:46.428Z,16.40
2019-06-20T20:19:15.946Z,16.50
2019-06-20T20:22:06.652Z,16.40
2019-06-20T20:24:54.762Z,16.30
2019-06-20T20:27:24.269Z,16.30
2019-06-20T20:30:12.970Z,16.20
2019-06-20T20:33:02.180Z,16.20
2019-06-20T20:35:51.686Z,16.20
2019-06-20T20:38:21.197Z,16.20
2019-06-20T20:41:09.730Z,16.10
2019-06-20T20:43:58.305Z,16.10
2019-06-20T20:46:46.829Z,16.00
2019-06-20T20:49:16.342Z,16.00
2019-06-20T20:51:56.005Z,16.00
2019-06-20T20:54:25.537Z,16.00
2019-06-20T20:56:55.005Z,16.00
2019-06-20T20:59:24.597Z,16.10
2019-06-20T21:01:55.012Z,16.00
2019-06-20T21:04:24.469Z,16.00
2019-06-20T21:06:53.971Z,16.10
2019-06-20T21:09:23.489Z,16.10
2019-06-20T21:11:52.992Z,16.00
2019-06-20T21:14:22.456Z,16.00
2019-06-20T21:16:51.919Z,16.00
2019-06-20T21:19:21.434Z,16.00
2019-06-20T21:21:50.891Z,15.90
2019-06-20T21:24:20.519Z,15.90
2019-06-20T21:26:50.361Z,15.90
2019-06-20T21:29:19.955Z,16.00
2019-06-20T21:31:49.634Z,16.00
2019-06-20T21:34:19.265Z,16.00
2019-06-20T21:36:48.708Z,15.90
2019-06-20T21:39:18.234Z,15.90
2019-06-20T21:41:47.752Z,15.90
2019-06-20T21:44:17.712Z,15.90
2019-06-20T21:46:47.263Z,16.00
2019-06-20T21:49:17.265Z,16.00
2019-06-20T21:51:46.964Z,16.00
2019-06-20T21:54:16.437Z,15.90
2019-06-20T21:56:46.061Z,15.80
2019-06-20T21:59:16.056Z,15.80
2019-06-20T22:01:48.387Z,15.80
2019-06-20T22:04:17.014Z,15.80
2019-06-20T22:06:46.681Z,15.80
2019-06-20T22:09:16.517Z,15.80
2019-06-20T22:11:46.183Z,15.80
2019-06-20T22:14:16.006Z,15.80
2019-06-20T22:16:45.637Z,15.70
2019-06-20T22:19:15.467Z,15.70
2019-06-20T22:21:45.005Z,15.60
2019-06-20T22:24:14.481Z,15.60
2019-06-20T22:26:44.049Z,15.60
2019-06-20T22:29:13.609Z,15.60
2019-06-20T22:31:43.320Z,15.60
2019-06-20T22:34:12.938Z,15.60
2019-06-20T22:36:42.453Z,15.60
2019-06-20T22:39:11.954Z,15.60
2019-06-20T22:41:41.525Z,15.60
2019-06-20T22:44:11.094Z,15.60
2019-06-20T22:46:40.636Z,15.70
2019-06-20T22:49:10.125Z,15.60
2019-06-20T22:51:39.629Z,15.50
2019-06-20T22:54:09.165Z,15.50
2019-06-20T22:56:38.675Z,15.40
2019-06-20T23:01:42.766Z,15.40
2019-06-20T23:04:12.242Z,15.30
2019-06-20T23:06:55.297Z,15.30
2019-06-20T23:09:15.248Z,15.30
2019-06-20T23:11:44.842Z,15.20
2019-06-20T23:14:14.464Z,15.30
2019-06-20T23:16:43.983Z,15.20
2019-06-20T23:19:13.496Z,15.20
2019-06-20T23:21:43.063Z,15.20
2019-06-20T23:24:12.734Z,15.20
2019-06-20T23:26:42.213Z,15.20
2019-06-20T23:29:23.736Z,15.10
2019-06-20T23:31:54.514Z,15.10
2019-06-20T23:34:24.047Z,15.10
2019-06-20T23:36:53.536Z,15.10
2019-06-20T23:39:23.030Z,15.00
2019-06-20T23:41:52.531Z,15.00
2019-06-20T23:44:22.016Z,15.20
2019-06-20T23:46:51.535Z,15.30
2019-06-20T23:49:21.044Z,15.20
2019-06-20T23:52:04.724Z,15.10
2019-06-20T23:54:34.283Z,15.10
2019-06-20T23:57:03.799Z,15.10
2019-06-20T23:59:33.286Z,15.10
